Time;durP1;ratioP1;P1;durP2;ratioP2;P2;SDS_P1;SDS_P2;PMS_P1;PMS_P2;Temp;Humidity;BMP_temperature;BMP_pressure;BME280_temperature;BME280_humidity;BME280_pressure;Samples;Min_cycle;Max_cycle;Signal;HPM_P1;HPM_P2
2021/10/21 00:00:27;;;;;;;0.30;0.20;;;;;;;15.93;100.00;98465.19;5019953;28;20427;-50
2021/10/21 00:02:53;;;;;;;0.30;0.20;;;;;;;16.00;100.00;98465.53;5020172;28;20473;-47
2021/10/21 00:05:20;;;;;;;0.30;0.20;;;;;;;16.05;100.00;98462.50;5019523;28;20524;-47
2021/10/21 00:07:47;;;;;;;0.30;0.20;;;;;;;16.08;100.00;98443.50;5025879;28;20427;-47
2021/10/21 00:10:15;;;;;;;0.30;0.20;;;;;;;16.01;100.00;98429.72;5026812;28;20451;-47
2021/10/21 00:12:41;;;;;;;0.30;0.20;;;;;;;16.12;100.00;98423.50;5032576;28;20470;-47
2021/10/21 00:15:10;;;;;;;0.40;0.40;;;;;;;16.15;100.00;98420.56;5019703;28;20494;-47
2021/10/21 00:17:36;;;;;;;0.30;0.20;;;;;;;16.16;100.00;98422.25;5032658;28;20487;-48
2021/10/21 00:20:06;;;;;;;0.30;0.20;;;;;;;16.11;100.00;98401.19;5019339;28;20427;-48
2021/10/21 00:22:33;;;;;;;0.30;0.20;;;;;;;16.08;100.00;98396.09;5023184;28;20499;-47
2021/10/21 00:25:00;;;;;;;0.30;0.20;;;;;;;16.18;100.00;98402.41;5016737;28;20817;-47
2021/10/21 00:27:27;;;;;;;0.30;0.20;;;;;;;16.14;100.00;98373.28;5023082;28;20480;-47
2021/10/21 00:29:53;;;;;;;0.30;0.20;;;;;;;16.24;100.00;98380.44;5026066;28;20445;-48
2021/10/21 00:32:20;;;;;;;0.30;0.20;;;;;;;16.11;100.00;98387.78;5022536;28;20456;-47
2021/10/21 00:34:46;;;;;;;0.30;0.20;;;;;;;16.20;100.00;98367.44;5019133;28;20477;-47
2021/10/21 00:37:13;;;;;;;0.30;0.20;;;;;;;16.18;100.00;98361.34;5022140;28;20456;-47
2021/10/21 00:39:40;;;;;;;0.30;0.20;;;;;;;16.18;100.00;98356.84;5025536;28;20511;-48
2021/10/21 00:42:06;;;;;;;0.30;0.20;;;;;;;16.26;100.00;98346.31;5022702;28;20426;-47
2021/10/21 00:44:33;;;;;;;0.30;0.20;;;;;;;16.32;100.00;98322.66;5018756;28;21005;-47
2021/10/21 00:47:00;;;;;;;0.30;0.20;;;;;;;16.24;100.00;98321.47;5022196;28;21008;-47
2021/10/21 00:49:26;;;;;;;0.30;0.20;;;;;;;16.31;100.00;98321.81;5022397;28;20825;-47
2021/10/21 00:51:53;;;;;;;0.30;0.20;;;;;;;16.27;100.00;98317.66;5012919;28;20483;-50
2021/10/21 00:54:21;;;;;;;0.30;0.20;;;;;;;16.26;100.00;98327.53;5018666;28;20443;-49
2021/10/21 00:56:52;;;;;;;0.30;0.20;;;;;;;16.24;100.00;98323.31;5022062;28;20499;-49
2021/10/21 00:59:20;;;;;;;0.30;0.20;;;;;;;16.22;100.00;98326.13;5025857;28;20486;-50
2021/10/21 01:01:46;;;;;;;0.30;0.20;;;;;;;16.30;100.00;98318.25;5023200;28;20533;-50
2021/10/21 01:04:13;;;;;;;0.40;0.30;;;;;;;16.38;100.00;98314.09;5018675;28;20466;-50
2021/10/21 01:06:42;;;;;;;0.30;0.20;;;;;;;16.39;100.00;98313.97;5021298;28;20456;-50
2021/10/21 01:09:09;;;;;;;0.30;0.20;;;;;;;16.38;100.00;98314.94;5025330;28;21013;-50
2021/10/21 01:11:35;;;;;;;0.30;0.20;;;;;;;16.41;100.00;98319.19;5025065;28;20524;-50
2021/10/21 01:14:02;;;;;;;0.30;0.20;;;;;;;16.26;100.00;98313.28;5026013;28;20845;-52
2021/10/21 01:16:29;;;;;;;0.30;0.20;;;;;;;16.28;100.00;98298.78;5024942;28;20551;-52
2021/10/21 01:18:56;;;;;;;0.30;0.20;;;;;;;16.30;100.00;98286.09;5025434;28;20476;-53
2021/10/21 01:21:22;;;;;;;0.30;0.20;;;;;;;16.27;100.00;98293.53;5025169;28;20443;-52
2021/10/21 01:23:49;;;;;;;0.50;0.50;;;;;;;16.30;100.00;98278.03;5025560;28;20536;-52
2021/10/21 01:26:16;;;;;;;0.30;0.20;;;;;;;16.30;100.00;98293.28;5024971;28;20831;-52
2021/10/21 01:28:42;;;;;;;0.40;0.30;;;;;;;16.10;100.00;98324.44;5018538;28;20877;-51
2021/10/21 01:31:09;;;;;;;0.30;0.20;;;;;;;16.25;100.00;98339.25;5018610;28;20554;-52
2021/10/21 01:33:37;;;;;;;0.30;0.20;;;;;;;16.08;100.00;98360.41;5024938;28;20913;-51
2021/10/21 01:36:04;;;;;;;0.30;0.20;;;;;;;15.92;100.00;98352.78;5025133;28;20458;-51
2021/10/21 01:38:31;;;;;;;0.30;0.20;;;;;;;15.88;100.00;98370.03;5019771;28;20451;-51
2021/10/21 01:40:58;;;;;;;0.30;0.20;;;;;;;15.77;100.00;98370.94;5018703;28;20455;-51
2021/10/21 01:43:25;;;;;;;0.30;0.20;;;;;;;15.53;100.00;98354.13;5024085;28;20477;-51
2021/10/21 01:45:53;;;;;;;0.30;0.20;;;;;;;15.31;100.00;98355.81;5025184;28;20504;-51
2021/10/21 01:48:19;;;;;;;0.30;0.20;;;;;;;15.08;100.00;98338.06;5021386;28;20430;-51
2021/10/21 01:50:47;;;;;;;0.30;0.20;;;;;;;14.99;100.00;98318.22;5022320;28;20480;-51
2021/10/21 01:53:14;;;;;;;0.30;0.20;;;;;;;14.69;100.00;98312.56;5027091;28;20898;-51
2021/10/21 01:55:42;;;;;;;6.03;1.03;;;;;;;14.48;100.00;98307.03;5028969;28;20502;-49
2021/10/21 01:58:09;;;;;;;0.30;0.20;;;;;;;14.43;100.00;98309.19;5024201;28;20447;-49
2021/10/21 02:00:35;;;;;;;0.30;0.20;;;;;;;14.42;100.00;98302.13;5021942;28;20452;-49
2021/10/21 02:03:03;;;;;;;0.30;0.20;;;;;;;14.43;100.00;98315.38;5026040;28;21056;-49
2021/10/21 02:05:29;;;;;;;0.30;0.20;;;;;;;14.36;100.00;98306.13;5028534;28;20549;-49
2021/10/21 02:07:56;;;;;;;0.30;0.20;;;;;;;14.38;100.00;98304.16;5024618;28;20447;-49
2021/10/21 02:10:22;;;;;;;0.30;0.20;;;;;;;14.38;100.00;98306.00;5021729;28;20451;-49
2021/10/21 02:12:49;;;;;;;0.30;0.20;;;;;;;14.38;100.00;98290.81;5034940;28;20518;-49
2021/10/21 02:15:16;;;;;;;0.30;0.20;;;;;;;14.20;100.00;98301.06;5021732;28;21272;-49
2021/10/21 02:17:43;;;;;;;0.30;0.20;;;;;;;14.30;100.00;98309.25;5034868;28;20441;-48
2021/10/21 02:20:10;;;;;;;0.30;0.30;;;;;;;14.15;100.00;98313.94;5018893;28;20973;-49
2021/10/21 02:22:38;;;;;;;0.30;0.20;;;;;;;14.24;100.00;98331.09;5024607;28;20431;-49
2021/10/21 02:25:07;;;;;;;0.30;0.20;;;;;;;14.26;100.00;98331.00;5021530;28;20487;-49
2021/10/21 02:27:34;;;;;;;0.30;0.20;;;;;;;14.22;100.00;98343.72;5024352;28;20448;-49
2021/10/21 02:30:00;;;;;;;0.30;0.20;;;;;;;14.17;100.00;98337.88;5019068;28;20478;-49
2021/10/21 02:32:27;;;;;;;0.30;0.20;;;;;;;14.04;100.00;98339.75;5023882;28;20942;-49
2021/10/21 02:34:54;;;;;;;0.30;0.20;;;;;;;14.02;100.00;98331.00;5027990;28;20442;-49
2021/10/21 02:37:21;;;;;;;0.30;0.20;;;;;;;13.99;100.00;98321.41;5026034;28;20452;-48
2021/10/21 02:39:47;;;;;;;0.30;0.20;;;;;;;14.04;100.00;98339.75;5021030;28;20940;-49
2021/10/21 02:42:14;;;;;;;0.30;0.20;;;;;;;14.06;100.00;98324.47;5023597;28;20452;-49
2021/10/21 02:44:41;;;;;;;0.30;0.30;;;;;;;13.99;100.00;98324.06;5027665;28;20492;-48
2021/10/21 02:47:07;;;;;;;0.30;0.20;;;;;;;14.13;100.00;98341.75;5026013;28;20489;-49
2021/10/21 02:49:34;;;;;;;0.30;0.20;;;;;;;14.07;100.00;98332.34;5021174;28;20480;-49
2021/10/21 02:52:01;;;;;;;0.30;0.20;;;;;;;14.04;100.00;98334.41;5023142;28;20452;-48
2021/10/21 02:54:27;;;;;;;0.30;0.20;;;;;;;13.99;100.00;98345.44;5026365;28;20481;-48
2021/10/21 02:56:54;;;;;;;0.30;0.20;;;;;;;14.03;100.00;98338.06;5022542;28;20448;-48
2021/10/21 02:59:20;;;;;;;0.30;0.20;;;;;;;14.07;100.00;98348.38;5027102;28;20457;-48
2021/10/21 03:01:47;;;;;;;0.30;0.20;;;;;;;14.15;100.00;98332.66;5026843;28;20482;-49
2021/10/21 03:04:14;;;;;;;0.30;0.20;;;;;;;14.02;100.00;98331.84;5020415;28;20495;-48
2021/10/21 03:06:40;;;;;;;0.30;0.20;;;;;;;14.17;100.00;98340.56;5021871;28;20456;-49
2021/10/21 03:09:07;;;;;;;0.30;0.20;;;;;;;14.08;100.00;98344.75;5027605;28;20452;-49
2021/10/21 03:11:34;;;;;;;0.30;0.20;;;;;;;14.08;100.00;98339.41;5026631;28;20873;-49
2021/10/21 03:14:01;;;;;;;0.30;0.20;;;;;;;14.16;100.00;98345.03;5028176;28;20447;-49
2021/10/21 03:16:31;;;;;;;0.30;0.20;;;;;;;14.13;100.00;98337.25;5026750;28;20482;-49
2021/10/21 03:18:57;;;;;;;0.30;0.20;;;;;;;14.14;100.00;98351.47;5008261;28;20452;-48
2021/10/21 03:21:24;;;;;;;0.30;0.20;;;;;;;14.12;99.58;98340.91;5020287;28;20453;-49
2021/10/21 03:23:51;;;;;;;0.30;0.20;;;;;;;14.14;98.91;98346.97;5026632;28;20480;-49
2021/10/21 03:26:17;;;;;;;0.30;0.20;;;;;;;14.13;97.04;98339.94;5026857;28;20519;-48
2021/10/21 03:28:44;;;;;;;0.30;0.20;;;;;;;14.13;97.88;98337.25;5020835;28;20938;-51
2021/10/21 03:31:11;;;;;;;0.30;0.20;;;;;;;14.09;96.62;98361.63;5020290;28;20488;-51
2021/10/21 03:33:37;;;;;;;0.30;0.20;;;;;;;14.10;96.40;98342.81;5026829;28;20560;-51
2021/10/21 03:36:04;;;;;;;0.30;0.20;;;;;;;14.10;95.68;98341.97;5026866;28;20451;-50
2021/10/21 03:38:31;;;;;;;0.30;0.20;;;;;;;14.19;95.87;98355.50;5021025;28;20502;-51
2021/10/21 03:40:59;;;;;;;0.30;0.20;;;;;;;14.12;94.63;98330.22;5020208;28;20871;-51
2021/10/21 03:43:25;;;;;;;0.30;0.20;;;;;;;14.12;94.64;98326.69;5025726;28;20485;-51
2021/10/21 03:45:52;;;;;;;0.30;0.20;;;;;;;14.12;95.87;98335.56;5026732;28;20491;-49
2021/10/21 03:48:19;;;;;;;0.30;0.20;;;;;;;14.13;93.54;98339.94;5021789;28;20483;-49
2021/10/21 03:50:46;;;;;;;0.30;0.20;;;;;;;14.14;94.55;98320.25;5020006;28;20477;-48
2021/10/21 03:53:13;;;;;;;0.30;0.20;;;;;;;14.14;93.41;98330.09;5024612;28;20893;-50
2021/10/21 03:55:40;;;;;;;0.30;0.20;;;;;;;14.18;92.54;98316.38;5026485;28;20444;-48
2021/10/21 03:58:08;;;;;;;0.30;0.20;;;;;;;14.11;92.66;98336.50;5022792;28;20452;-49
2021/10/21 04:00:35;;;;;;;0.30;0.20;;;;;;;14.13;92.21;98337.25;5020421;28;20445;-49
2021/10/21 04:03:02;;;;;;;0.30;0.20;;;;;;;14.10;92.91;98312.56;5023773;28;20495;-49
2021/10/21 04:05:29;;;;;;;0.30;0.20;;;;;;;14.12;92.38;98335.56;5026373;28;20474;-49
2021/10/21 04:07:56;;;;;;;2.70;1.23;;;;;;;14.16;92.95;98330.81;5022899;28;20460;-49
2021/10/21 04:10:22;;;;;;;0.30;0.20;;;;;;;14.22;92.85;98341.91;5018616;28;20451;-49
2021/10/21 04:12:49;;;;;;;0.30;0.20;;;;;;;14.22;91.74;98339.22;5032991;28;20508;-49
2021/10/21 04:15:16;;;;;;;0.30;0.20;;;;;;;14.24;92.00;98341.78;5020145;28;20480;-49
2021/10/21 04:17:42;;;;;;;0.30;0.20;;;;;;;14.19;92.10;98342.13;5032980;28;20521;-49
2021/10/21 04:20:10;;;;;;;0.30;0.20;;;;;;;14.18;93.24;98347.59;5019735;28;20456;-49
2021/10/21 04:22:36;;;;;;;0.30;0.20;;;;;;;14.19;93.31;98354.66;5022678;28;20449;-49
2021/10/21 04:25:03;;;;;;;0.30;0.20;;;;;;;14.11;94.62;98365.03;5016349;28;20868;-50
2021/10/21 04:27:30;;;;;;;0.30;0.20;;;;;;;14.07;94.30;98376.91;5023188;28;20452;-49
2021/10/21 04:29:56;;;;;;;0.30;0.20;;;;;;;14.05;95.68;98384.19;5026114;28;20506;-49
2021/10/21 04:32:23;;;;;;;0.30;0.20;;;;;;;14.09;94.44;98367.81;5022512;28;20456;-49
2021/10/21 04:34:49;;;;;;;0.30;0.20;;;;;;;13.96;95.59;98387.53;5019941;28;20578;-49
2021/10/21 04:37:16;;;;;;;0.30;0.20;;;;;;;13.98;96.12;98380.25;5022701;28;20954;-48
2021/10/21 04:39:43;;;;;;;0.30;0.20;;;;;;;14.01;95.79;98370.22;5025793;28;20452;-49
2021/10/21 04:42:09;;;;;;;0.30;0.20;;;;;;;13.98;95.72;98390.94;5022302;28;20452;-50
2021/10/21 04:44:36;;;;;;;0.30;0.20;;;;;;;14.04;95.91;98406.53;5018869;28;20510;-49
2021/10/21 04:47:03;;;;;;;0.30;0.20;;;;;;;13.99;97.39;98417.56;5022699;28;20427;-50
2021/10/21 04:49:29;;;;;;;0.30;0.20;;;;;;;13.93;99.23;98413.50;5008144;28;20491;-49
2021/10/21 04:51:56;;;;;;;0.30;0.20;;;;;;;13.88;99.44;98404.13;5022879;28;20484;-49
2021/10/21 04:54:22;;;;;;;0.30;0.20;;;;;;;13.91;99.09;98396.75;5018862;28;20498;-49
2021/10/21 04:56:49;;;;;;;0.30;0.20;;;;;;;13.78;97.75;98403.94;5021775;28;20958;-50
2021/10/21 04:59:16;;;;;;;0.30;0.20;;;;;;;13.80;96.10;98395.81;5025600;28;20942;-49
2021/10/21 05:01:42;;;;;;;0.40;0.40;;;;;;;13.77;95.16;98402.22;5023628;28;20506;-49
2021/10/21 05:04:09;;;;;;;0.30;0.20;;;;;;;13.89;94.10;98392.50;5018720;28;20472;-49
2021/10/21 05:06:36;;;;;;;0.30;0.20;;;;;;;13.91;93.47;98420.78;5021223;28;20493;-49
2021/10/21 05:09:03;;;;;;;0.30;0.20;;;;;;;13.92;92.41;98430.50;5025351;28;21012;-49
2021/10/21 05:11:30;;;;;;;0.30;0.20;;;;;;;14.02;91.72;98419.16;5024371;28;20502;-49
2021/10/21 05:13:56;;;;;;;0.30;0.20;;;;;;;13.94;90.85;98425.91;5026742;28;20472;-49
2021/10/21 05:16:23;;;;;;;0.30;0.20;;;;;;;13.98;90.70;98429.22;5006923;28;20952;-50
2021/10/21 05:18:50;;;;;;;0.30;0.20;;;;;;;13.98;89.42;98418.53;5026229;28;20453;-49
2021/10/21 05:21:16;;;;;;;0.30;0.20;;;;;;;14.03;90.05;98411.03;5025398;28;20451;-49
2021/10/21 05:23:43;;;;;;;0.30;0.20;;;;;;;14.03;90.35;98416.38;5000621;28;20480;-49
2021/10/21 05:26:10;;;;;;;0.30;0.20;;;;;;;14.00;89.59;98419.28;5029189;28;20491;-49
2021/10/21 05:28:36;;;;;;;0.30;0.20;;;;;;;13.99;89.13;98406.03;5022226;28;20802;-49
2021/10/21 05:31:03;;;;;;;0.30;0.20;;;;;;;14.00;89.06;98415.75;5022890;28;20538;-49
2021/10/21 05:33:34;;;;;;;0.30;0.20;;;;;;;14.02;90.71;98411.16;5022525;28;20895;-49
2021/10/21 05:36:04;;;;;;;0.30;0.20;;;;;;;14.09;89.80;98417.72;5022512;28;20445;-49
2021/10/21 05:38:31;;;;;;;0.30;0.20;;;;;;;14.01;89.36;98414.78;5028198;28;20448;-49
2021/10/21 05:40:59;;;;;;;0.30;0.20;;;;;;;14.01;88.63;98425.47;5028999;28;20806;-49
2021/10/21 05:43:25;;;;;;;0.30;0.20;;;;;;;13.94;88.25;98433.91;5024122;28;20468;-48
2021/10/21 05:45:52;;;;;;;0.30;0.20;;;;;;;13.95;88.34;98442.78;5021772;28;21067;-49
2021/10/21 05:48:19;;;;;;;0.30;0.20;;;;;;;13.92;89.71;98437.66;5027619;28;20452;-49
2021/10/21 05:50:45;;;;;;;0.30;0.20;;;;;;;13.89;90.41;98444.09;5028696;28;20475;-50
2021/10/21 05:53:12;;;;;;;0.30;0.20;;;;;;;13.88;89.74;98437.03;5006004;28;20467;-50
2021/10/21 05:55:38;;;;;;;0.30;0.20;;;;;;;13.85;90.18;98447.94;5028971;28;20447;-50
2021/10/21 05:58:05;;;;;;;0.30;0.20;;;;;;;13.88;88.12;98422.84;5024032;28;20483;-50
2021/10/21 06:00:32;;;;;;;0.30;0.20;;;;;;;13.84;87.68;98440.91;5021921;28;20989;-49
2021/10/21 06:02:59;;;;;;;0.30;0.30;;;;;;;13.81;88.56;98475.81;5026233;28;20559;-49
2021/10/21 06:05:25;;;;;;;0.30;0.20;;;;;;;13.84;87.80;98456.94;5028691;28;20487;-50
2021/10/21 06:07:52;;;;;;;0.30;0.20;;;;;;;13.90;88.77;98466.31;5024683;28;20455;-50
2021/10/21 06:10:19;;;;;;;0.30;0.20;;;;;;;13.84;91.19;98482.75;5021722;28;20440;-50
2021/10/21 06:12:49;;;;;;;3.27;0.57;;;;;;;13.59;93.93;98476.50;5035362;28;20499;-50
2021/10/21 06:15:17;;;;;;;0.30;0.20;;;;;;;13.60;95.19;98501.38;5021973;28;20506;-49
2021/10/21 06:17:44;;;;;;;0.30;0.20;;;;;;;13.47;95.72;98506.72;5017911;28;20520;-50
2021/10/21 06:20:15;;;;;;;0.30;0.20;;;;;;;13.32;96.19;98497.94;5022010;28;20451;-49
2021/10/21 06:22:42;;;;;;;0.30;0.20;;;;;;;13.14;98.54;98508.97;5024395;28;20445;-49
2021/10/21 06:25:10;;;;;;;0.30;0.20;;;;;;;13.26;98.20;98525.03;5019632;28;20519;-49
2021/10/21 06:27:38;;;;;;;0.53;0.53;;;;;;;13.13;98.87;98534.78;5023829;28;20460;-49
2021/10/21 06:30:06;;;;;;;0.30;0.20;;;;;;;13.04;98.69;98524.75;5019937;28;20448;-49
2021/10/21 06:32:33;;;;;;;0.30;0.20;;;;;;;13.17;99.54;98536.31;5023210;28;20449;-50
2021/10/21 06:35:01;;;;;;;0.30;0.20;;;;;;;13.12;97.81;98522.41;5027684;28;20495;-49
2021/10/21 06:37:28;;;;;;;0.30;0.20;;;;;;;13.23;98.34;98535.91;5026770;28;20505;-50
2021/10/21 06:39:55;;;;;;;0.30;0.20;;;;;;;13.05;100.00;98537.13;5021262;28;20502;-50
2021/10/21 06:42:23;;;;;;;0.30;0.20;;;;;;;12.97;100.00;98542.97;5023136;28;20452;-49
2021/10/21 06:44:51;;;;;;;0.30;0.20;;;;;;;12.98;100.00;98533.16;5028392;28;20556;-50
2021/10/21 06:47:18;;;;;;;0.30;0.20;;;;;;;12.82;100.00;98578.66;5027273;28;20460;-49
2021/10/21 06:49:45;;;;;;;0.30;0.20;;;;;;;12.79;100.00;98575.31;5020835;28;20837;-49
2021/10/21 06:52:12;;;;;;;0.30;0.20;;;;;;;12.83;100.00;98593.69;5021792;28;20452;-50
2021/10/21 06:54:39;;;;;;;0.30;0.20;;;;;;;12.79;100.00;98610.00;5027533;28;20468;-49
2021/10/21 06:57:06;;;;;;;0.30;0.20;;;;;;;12.78;100.00;98626.94;5021506;28;20448;-49
2021/10/21 06:59:33;;;;;;;0.30;0.20;;;;;;;12.77;100.00;98646.56;5027967;28;20453;-49
2021/10/21 07:01:59;;;;;;;0.30;0.20;;;;;;;12.72;100.00;98662.84;5027624;28;20456;-49
2021/10/21 07:04:27;;;;;;;0.30;0.20;;;;;;;12.84;100.00;98686.06;5008888;28;20471;-49
2021/10/21 07:06:54;;;;;;;0.30;0.20;;;;;;;12.81;100.00;98693.41;5021125;28;20527;-50
2021/10/21 07:09:20;;;;;;;0.30;0.20;;;;;;;12.95;100.00;98717.38;5026928;28;20448;-49
2021/10/21 07:11:47;;;;;;;0.30;0.20;;;;;;;12.99;100.00;98743.75;5028560;28;20506;-50
2021/10/21 07:14:13;;;;;;;0.30;0.20;;;;;;;13.03;100.00;98763.13;5026452;28;20480;-50
2021/10/21 07:16:40;;;;;;;0.30;0.20;;;;;;;12.99;100.00;98780.25;5027534;28;20953;-49
2021/10/21 07:19:07;;;;;;;0.30;0.20;;;;;;;13.07;100.00;98801.13;5022226;28;20448;-50
2021/10/21 07:21:34;;;;;;;0.30;0.20;;;;;;;13.01;100.00;98797.84;5020575;28;20821;-49
2021/10/21 07:24:04;;;;;;;0.43;0.40;;;;;;;13.17;100.00;98807.59;5025358;28;20906;-49
2021/10/21 07:26:31;;;;;;;0.30;0.20;;;;;;;13.23;100.00;98845.44;5027165;28;20533;-51
2021/10/21 07:28:57;;;;;;;0.30;0.20;;;;;;;13.28;98.81;98866.50;5014381;28;20484;-49
2021/10/21 07:31:26;;;;;;;0.30;0.20;;;;;;;13.26;98.22;98879.94;5027189;28;20451;-50
2021/10/21 07:33:53;;;;;;;0.30;0.20;;;;;;;13.25;97.67;98896.03;5022795;28;20890;-49
2021/10/21 07:36:20;;;;;;;0.30;0.20;;;;;;;13.30;97.76;98916.16;5020061;28;20527;-49
2021/10/21 07:38:48;;;;;;;0.30;0.20;;;;;;;13.38;97.13;98928.16;5024700;28;20449;-50
2021/10/21 07:41:16;;;;;;;0.30;0.20;;;;;;;13.23;97.81;98943.31;5027077;28;20460;-49
2021/10/21 07:43:43;;;;;;;0.30;0.20;;;;;;;13.16;96.66;98969.50;5023775;28;20475;-49
2021/10/21 07:46:09;;;;;;;0.30;0.20;;;;;;;13.22;96.43;98989.63;5019269;28;20561;-49
2021/10/21 07:48:36;;;;;;;0.30;0.20;;;;;;;13.25;95.05;99016.97;5024544;28;20976;-51
2021/10/21 07:51:03;;;;;;;0.30;0.20;;;;;;;13.24;92.92;99038.44;5026685;28;20538;-50
2021/10/21 07:53:30;;;;;;;0.30;0.20;;;;;;;13.28;90.97;99050.63;5020522;28;20465;-51
2021/10/21 07:55:58;;;;;;;0.30;0.20;;;;;;;13.23;91.76;99082.06;5027017;28;20491;-51
2021/10/21 07:58:24;;;;;;;0.30;0.20;;;;;;;13.25;92.45;99104.19;5023491;28;20452;-51
2021/10/21 08:00:51;;;;;;;0.30;0.20;;;;;;;13.24;91.33;99119.34;5019924;28;20505;-51
2021/10/21 08:03:19;;;;;;;0.30;0.20;;;;;;;13.28;90.91;99152.03;5022788;28;20560;-50
2021/10/21 08:05:45;;;;;;;0.30;0.20;;;;;;;13.20;91.32;99144.50;5026402;28;20488;-50
2021/10/21 08:08:12;;;;;;;0.30;0.20;;;;;;;13.26;92.41;99144.13;5024096;28;20448;-51
2021/10/21 08:10:39;;;;;;;0.30;0.20;;;;;;;13.16;89.43;99176.75;5020311;28;20578;-50
2021/10/21 08:13:05;;;;;;;0.50;0.47;;;;;;;13.18;90.78;99169.53;5032723;28;20467;-51
2021/10/21 08:15:32;;;;;;;0.30;0.20;;;;;;;13.26;90.22;99176.16;5019437;28;21002;-50
2021/10/21 08:17:59;;;;;;;0.30;0.20;;;;;;;13.21;89.84;99196.91;5032837;28;20576;-51
2021/10/21 08:20:27;;;;;;;0.30;0.20;;;;;;;13.50;90.49;99205.91;5019697;28;20502;-50
2021/10/21 08:22:58;;;;;;;0.30;0.20;;;;;;;13.43;89.18;99230.38;5020475;28;20481;-50
2021/10/21 08:25:25;;;;;;;0.30;0.20;;;;;;;13.42;89.18;99236.66;5018567;28;20447;-51
2021/10/21 08:27:52;;;;;;;0.30;0.20;;;;;;;13.72;88.89;99245.59;5020568;28;20928;-51
2021/10/21 08:30:23;;;;;;;0.30;0.20;;;;;;;13.98;87.85;99244.06;5026088;28;20449;-51
2021/10/21 08:32:51;;;;;;;0.30;0.20;;;;;;;13.92;86.82;99257.78;5025999;28;21035;-51
2021/10/21 08:35:18;;;;;;;0.30;0.20;;;;;;;14.07;86.55;99251.53;5007140;28;20426;-51
2021/10/21 08:37:45;;;;;;;0.30;0.20;;;;;;;14.12;84.92;99260.16;5019223;28;20970;-51
2021/10/21 08:40:14;;;;;;;0.30;0.20;;;;;;;14.28;85.06;99273.44;5025613;28;20471;-50
2021/10/21 08:42:44;;;;;;;0.30;0.20;;;;;;;14.23;84.83;99280.84;5025744;28;20509;-50
2021/10/21 08:45:11;;;;;;;0.30;0.20;;;;;;;14.07;84.79;99304.09;5020910;28;20510;-49
2021/10/21 08:47:41;;;;;;;0.30;0.20;;;;;;;14.18;84.69;99297.19;5018909;28;20492;-49
2021/10/21 08:50:12;;;;;;;0.30;0.20;;;;;;;14.18;84.44;99307.88;5023610;28;20503;-49
2021/10/21 08:52:39;;;;;;;0.30;0.20;;;;;;;14.27;83.09;99313.63;5025918;28;20538;-49
2021/10/21 08:55:06;;;;;;;0.30;0.20;;;;;;;14.39;82.89;99350.31;5004832;28;20964;-48
2021/10/21 08:57:34;;;;;;;0.30;0.20;;;;;;;14.24;83.04;99342.25;5018443;28;20482;-49
2021/10/21 09:00:01;;;;;;;0.30;0.20;;;;;;;14.50;83.14;99359.44;5022439;28;20449;-49
2021/10/21 09:03:05;;;;;;;0.30;0.20;;;;;;;14.43;82.03;99346.53;5025984;28;20448;-49
2021/10/21 09:08:03;;;;;;;0.30;0.20;;;;;;;14.06;83.12;99351.34;5020321;28;20492;-51
2021/10/21 09:10:31;;;;;;;0.30;0.20;;;;;;;14.38;81.76;99356.59;5019518;28;20444;-52
2021/10/21 09:12:58;;;;;;;0.30;0.20;;;;;;;14.37;80.73;99360.25;5032209;28;20475;-51
2021/10/21 09:15:27;;;;;;;0.30;0.20;;;;;;;14.45;80.14;99369.56;5018712;28;20459;-51
2021/10/21 09:17:54;;;;;;;0.30;0.20;;;;;;;14.40;80.20;99368.97;5033592;28;20430;-52
2021/10/21 09:20:25;;;;;;;0.30;0.20;;;;;;;14.74;79.94;99375.84;5018610;28;20448;-52
2021/10/21 09:23:00;;;;;;;0.30;0.20;;;;;;;14.72;78.35;99366.19;5020140;28;20483;-49
2021/10/21 09:25:29;;;;;;;0.30;0.20;;;;;;;15.17;78.50;99367.88;5018978;28;20885;-49
2021/10/21 09:28:02;;;;;;;0.30;0.20;;;;;;;15.30;78.23;99363.47;5031405;28;20544;-49
2021/10/21 09:30:33;;;;;;;0.30;0.20;;;;;;;14.99;78.01;99385.06;5020250;28;20929;-49
2021/10/21 09:33:07;;;;;;;0.30;0.20;;;;;;;14.89;77.79;99368.72;5018472;28;20576;-49
2021/10/21 09:35:37;;;;;;;0.30;0.20;;;;;;;14.87;78.06;99375.97;5022802;28;20452;-48
2021/10/21 09:38:04;;;;;;;0.30;0.20;;;;;;;15.03;78.34;99373.22;5025598;28;20448;-49
2021/10/21 09:40:36;;;;;;;0.30;0.20;;;;;;;14.74;79.30;99373.19;5024074;28;20444;-50
2021/10/21 09:43:05;;;;;;;0.30;0.20;;;;;;;14.57;78.93;99370.66;5018537;28;20968;-49
2021/10/21 09:45:34;;;;;;;0.30;0.20;;;;;;;14.87;79.72;99383.13;5020647;28;20423;-50
2021/10/21 09:48:04;;;;;;;0.30;0.20;;;;;;;14.76;77.69;99384.63;5025331;28;20488;-50
2021/10/21 09:50:38;;;;;;;0.30;0.20;;;;;;;14.48;78.04;99381.91;5024452;28;20475;-51
2021/10/21 09:53:17;;;;;;;0.30;0.20;;;;;;;14.81;79.01;99403.13;5018779;28;20475;-50
2021/10/21 09:55:51;;;;;;;0.30;0.20;;;;;;;15.03;78.76;99398.16;5020676;28;20491;-50
2021/10/21 09:58:24;;;;;;;3.80;1.00;;;;;;;14.91;77.80;99398.91;5022002;28;20480;-50
2021/10/21 10:00:50;;;;;;;0.30;0.20;;;;;;;14.77;78.34;99404.22;5018328;28;20509;-50
2021/10/21 10:03:29;;;;;;;0.30;0.20;;;;;;;14.80;79.72;99401.34;5021014;28;20472;-50
2021/10/21 10:05:57;;;;;;;0.30;0.20;;;;;;;15.11;78.96;99414.63;5025199;28;20444;-50
2021/10/21 10:08:26;;;;;;;0.30;0.20;;;;;;;14.82;79.24;99413.72;5025108;28;20578;-50
2021/10/21 10:10:58;;;;;;;0.30;0.20;;;;;;;14.58;79.10;99425.00;5009677;28;20475;-50
2021/10/21 10:13:27;;;;;;;0.30;0.20;;;;;;;14.77;79.18;99418.47;5034476;28;20525;-50
2021/10/21 10:15:56;;;;;;;0.30;0.20;;;;;;;14.94;77.27;99416.59;5023435;28;20451;-50
2021/10/21 10:18:25;;;;;;;0.30;0.20;;;;;;;14.97;77.99;99427.13;5033567;28;20451;-51
2021/10/21 10:21:22;;;;;;;0.30;0.20;;;;;;;15.01;78.05;99431.34;5024794;28;20452;-50
2021/10/21 10:23:51;;;;;;;0.30;0.20;;;;;;;15.05;77.67;99430.19;5015561;28;20484;-51
2021/10/21 10:26:39;;;;;;;0.30;0.20;;;;;;;15.26;76.75;99446.78;5028132;28;20483;-51
2021/10/21 10:29:06;;;;;;;0.30;0.30;;;;;;;15.24;77.49;99438.84;5025179;28;20519;-51
2021/10/21 10:31:39;;;;;;;0.30;0.20;;;;;;;15.13;77.34;99452.00;5028248;28;20510;-50
2021/10/21 10:34:08;;;;;;;0.30;0.20;;;;;;;15.19;78.04;99456.13;5025585;28;20471;-51
2021/10/21 10:36:36;;;;;;;0.30;0.20;;;;;;;15.50;77.27;99468.50;5005169;28;20506;-50
2021/10/21 10:39:06;;;;;;;0.30;0.20;;;;;;;15.37;77.16;99449.66;5006322;28;20456;-51
2021/10/21 10:41:42;;;;;;;0.30;0.20;;;;;;;15.29;77.00;99468.00;5027851;28;20807;-51
2021/10/21 10:44:10;;;;;;;0.30;0.20;;;;;;;15.78;77.10;99473.03;5028072;28;20892;-50
2021/10/21 10:46:52;;;;;;;0.30;0.20;;;;;;;15.79;75.76;99472.94;5009012;28;20533;-50
2021/10/21 10:49:37;;;;;;;0.30;0.20;;;;;;;15.86;76.86;99478.75;5021104;28;20456;-50
2021/10/21 10:52:06;;;;;;;0.30;0.20;;;;;;;15.16;76.87;99483.06;5022736;28;20522;-50
2021/10/21 10:54:39;;;;;;;0.30;0.20;;;;;;;15.40;77.43;99478.91;5027167;28;20499;-51
2021/10/21 10:57:06;;;;;;;0.30;0.20;;;;;;;15.24;76.84;99478.13;5021830;28;20495;-50
2021/10/21 10:59:35;;;;;;;0.30;0.20;;;;;;;15.20;79.11;99484.59;5027682;28;20456;-50
2021/10/21 11:02:29;;;;;;;0.30;0.20;;;;;;;15.38;78.32;99496.91;5027507;28;20913;-51
2021/10/21 11:05:06;;;;;;;0.60;0.60;;;;;;;15.31;78.42;99474.97;5026871;28;20440;-50
2021/10/21 11:07:39;;;;;;;0.30;0.20;;;;;;;15.39;77.61;99501.31;5021228;28;20526;-51
2021/10/21 11:10:18;;;;;;;0.30;0.20;;;;;;;15.32;78.31;99491.91;5021529;28;20457;-51
2021/10/21 11:12:51;;;;;;;0.30;0.20;;;;;;;15.53;79.72;99481.69;5034258;28;20442;-50
2021/10/21 11:15:33;;;;;;;0.30;0.20;;;;;;;15.54;78.42;99489.63;5020772;28;20933;-50
2021/10/21 11:18:03;;;;;;;0.30;0.20;;;;;;;15.38;77.54;99487.03;5034545;28;20456;-50
2021/10/21 11:20:38;;;;;;;0.47;0.47;;;;;;;15.48;77.96;99481.09;5020396;28;20423;-50
2021/10/21 11:23:07;;;;;;;0.30;0.20;;;;;;;15.19;78.62;99490.91;5003073;28;20480;-50
2021/10/21 11:25:38;;;;;;;0.30;0.20;;;;;;;15.22;78.12;99490.75;5009161;28;20911;-51
2021/10/21 11:28:06;;;;;;;0.30;0.20;;;;;;;15.23;77.28;99500.50;5020317;28;20496;-50
2021/10/21 11:30:37;;;;;;;0.30;0.20;;;;;;;15.65;76.50;99497.91;5025731;28;20472;-50
2021/10/21 11:33:08;;;;;;;0.30;0.20;;;;;;;15.67;75.14;99498.66;5027056;28;20490;-50
2021/10/21 11:35:37;;;;;;;0.30;0.20;;;;;;;15.77;74.18;99484.72;5023523;28;20447;-50
2021/10/21 11:38:15;;;;;;;0.30;0.20;;;;;;;15.65;73.68;99489.88;5019972;28;20937;-51